sensor_id;sensor_type;location;lat;lon;timestamp;temperature;humidity
41628;DHT22;27321;50.816;6.054;2024-02-23T00:01:48;8.00;68.20
41628;DHT22;27321;50.816;6.054;2024-02-23T00:04:49;7.90;68.50
41628;DHT22;27321;50.816;6.054;2024-02-23T00:07:50;7.80;68.50
41628;DHT22;27321;50.816;6.054;2024-02-23T00:10:50;7.80;68.00
41628;DHT22;27321;50.816;6.054;2024-02-23T00:13:51;7.60;68.40
41628;DHT22;27321;50.816;6.054;2024-02-23T00:16:54;7.50;68.50
41628;DHT22;27321;50.816;6.054;2024-02-23T00:19:55;7.50;68.20
41628;DHT22;27321;50.816;6.054;2024-02-23T00:22:55;7.40;68.40
41628;DHT22;27321;50.816;6.054;2024-02-23T00:25:56;7.40;68.20
41628;DHT22;27321;50.816;6.054;2024-02-23T00:28:57;7.50;68.50
41628;DHT22;27321;50.816;6.054;2024-02-23T00:31:58;7.50;68.40
41628;DHT22;27321;50.816;6.054;2024-02-23T00:34:59;7.60;68.50
41628;DHT22;27321;50.816;6.054;2024-02-23T00:38:00;7.60;69.00
41628;DHT22;27321;50.816;6.054;2024-02-23T00:41:02;7.70;68.90
41628;DHT22;27321;50.816;6.054;2024-02-23T00:44:03;7.80;68.70
41628;DHT22;27321;50.816;6.054;2024-02-23T00:47:05;7.80;68.60
41628;DHT22;27321;50.816;6.054;2024-02-23T00:50:06;7.80;69.20
41628;DHT22;27321;50.816;6.054;2024-02-23T00:53:07;7.80;69.10
41628;DHT22;27321;50.816;6.054;2024-02-23T00:56:09;7.80;69.40
41628;DHT22;27321;50.816;6.054;2024-02-23T00:59:10;7.70;68.80
41628;DHT22;27321;50.816;6.054;2024-02-23T01:02:10;7.60;68.80
41628;DHT22;27321;50.816;6.054;2024-02-23T01:05:12;7.70;69.40
41628;DHT22;27321;50.816;6.054;2024-02-23T01:08:13;7.70;69.40
41628;DHT22;27321;50.816;6.054;2024-02-23T01:11:14;7.70;69.40
41628;DHT22;27321;50.816;6.054;2024-02-23T01:14:15;7.70;70.10
41628;DHT22;27321;50.816;6.054;2024-02-23T01:17:16;7.70;69.60
41628;DHT22;27321;50.816;6.054;2024-02-23T01:20:17;7.70;69.80
41628;DHT22;27321;50.816;6.054;2024-02-23T01:23:18;7.70;69.30
41628;DHT22;27321;50.816;6.054;2024-02-23T01:26:19;7.60;69.20
41628;DHT22;27321;50.816;6.054;2024-02-23T01:29:20;7.60;69.10
41628;DHT22;27321;50.816;6.054;2024-02-23T01:32:23;7.60;68.70
41628;DHT22;27321;50.816;6.054;2024-02-23T01:35:23;7.50;69.00
41628;DHT22;27321;50.816;6.054;2024-02-23T01:38:24;7.60;68.80
41628;DHT22;27321;50.816;6.054;2024-02-23T01:41:29;7.70;69.00
41628;DHT22;27321;50.816;6.054;2024-02-23T01:44:30;7.60;69.00
41628;DHT22;27321;50.816;6.054;2024-02-23T01:47:31;7.60;68.60
41628;DHT22;27321;50.816;6.054;2024-02-23T01:50:32;7.40;68.70
41628;DHT22;27321;50.816;6.054;2024-02-23T01:53:33;7.40;69.00
41628;DHT22;27321;50.816;6.054;2024-02-23T01:56:35;7.30;68.80
41628;DHT22;27321;50.816;6.054;2024-02-23T01:59:38;7.30;69.40
41628;DHT22;27321;50.816;6.054;2024-02-23T02:02:39;7.30;69.00
41628;DHT22;27321;50.816;6.054;2024-02-23T02:05:41;7.30;69.00
41628;DHT22;27321;50.816;6.054;2024-02-23T02:08:42;7.30;68.50
41628;DHT22;27321;50.816;6.054;2024-02-23T02:11:47;7.30;68.90
41628;DHT22;27321;50.816;6.054;2024-02-23T02:14:48;7.20;68.90
41628;DHT22;27321;50.816;6.054;2024-02-23T02:17:49;7.10;69.30
41628;DHT22;27321;50.816;6.054;2024-02-23T02:20:52;7.20;69.10
41628;DHT22;27321;50.816;6.054;2024-02-23T02:23:55;7.20;69.10
41628;DHT22;27321;50.816;6.054;2024-02-23T02:26:57;7.20;68.70
41628;DHT22;27321;50.816;6.054;2024-02-23T02:29:58;7.10;69.00
41628;DHT22;27321;50.816;6.054;2024-02-23T02:32:59;7.20;68.90
41628;DHT22;27321;50.816;6.054;2024-02-23T02:36:00;7.20;68.80
41628;DHT22;27321;50.816;6.054;2024-02-23T02:39:03;7.20;68.80
41628;DHT22;27321;50.816;6.054;2024-02-23T02:42:05;7.20;68.50
41628;DHT22;27321;50.816;6.054;2024-02-23T02:45:06;7.20;68.60
41628;DHT22;27321;50.816;6.054;2024-02-23T02:48:07;7.20;67.90
41628;DHT22;27321;50.816;6.054;2024-02-23T02:51:08;7.20;68.30
41628;DHT22;27321;50.816;6.054;2024-02-23T02:54:09;7.30;68.20
41628;DHT22;27321;50.816;6.054;2024-02-23T02:57:10;7.30;67.90
41628;DHT22;27321;50.816;6.054;2024-02-23T03:00:11;7.30;67.90
41628;DHT22;27321;50.816;6.054;2024-02-23T03:03:12;7.30;67.70
41628;DHT22;27321;50.816;6.054;2024-02-23T03:06:13;7.30;67.80
41628;DHT22;27321;50.816;6.054;2024-02-23T03:09:14;7.30;67.50
41628;DHT22;27321;50.816;6.054;2024-02-23T03:12:15;7.30;67.80
41628;DHT22;27321;50.816;6.054;2024-02-23T03:15:16;7.30;67.80
41628;DHT22;27321;50.816;6.054;2024-02-23T03:18:17;7.30;67.60
41628;DHT22;27321;50.816;6.054;2024-02-23T03:21:18;7.30;67.80
41628;DHT22;27321;50.816;6.054;2024-02-23T03:24:19;7.30;68.20
41628;DHT22;27321;50.816;6.054;2024-02-23T03:27:20;7.40;68.20
41628;DHT22;27321;50.816;6.054;2024-02-23T03:30:21;7.50;68.00
41628;DHT22;27321;50.816;6.054;2024-02-23T03:33:22;7.50;67.80
41628;DHT22;27321;50.816;6.054;2024-02-23T03:36:23;7.60;67.80
41628;DHT22;27321;50.816;6.054;2024-02-23T03:39:27;7.60;67.60
41628;DHT22;27321;50.816;6.054;2024-02-23T03:42:29;7.50;67.50
41628;DHT22;27321;50.816;6.054;2024-02-23T03:45:30;7.50;67.70
41628;DHT22;27321;50.816;6.054;2024-02-23T03:48:31;7.40;67.90
41628;DHT22;27321;50.816;6.054;2024-02-23T03:51:32;7.50;67.70
41628;DHT22;27321;50.816;6.054;2024-02-23T03:54:38;7.50;67.50
41628;DHT22;27321;50.816;6.054;2024-02-23T03:57:39;7.50;67.50
41628;DHT22;27321;50.816;6.054;2024-02-23T04:00:40;7.40;67.70
41628;DHT22;27321;50.816;6.054;2024-02-23T04:03:44;7.30;67.70
41628;DHT22;27321;50.816;6.054;2024-02-23T04:06:45;7.30;67.50
41628;DHT22;27321;50.816;6.054;2024-02-23T04:09:46;7.30;67.80
41628;DHT22;27321;50.816;6.054;2024-02-23T04:12:52;7.40;67.50
41628;DHT22;27321;50.816;6.054;2024-02-23T04:15:54;7.50;67.60
41628;DHT22;27321;50.816;6.054;2024-02-23T04:18:55;7.50;67.60
41628;DHT22;27321;50.816;6.054;2024-02-23T04:21:56;7.50;67.10
41628;DHT22;27321;50.816;6.054;2024-02-23T04:24:58;7.50;67.70
41628;DHT22;27321;50.816;6.054;2024-02-23T04:27:59;7.60;67.30
41628;DHT22;27321;50.816;6.054;2024-02-23T04:31:00;7.50;67.40
41628;DHT22;27321;50.816;6.054;2024-02-23T04:34:02;7.50;67.30
41628;DHT22;27321;50.816;6.054;2024-02-23T04:37:03;7.50;67.40
41628;DHT22;27321;50.816;6.054;2024-02-23T04:40:05;7.50;67.40
41628;DHT22;27321;50.816;6.054;2024-02-23T04:43:06;7.60;67.30
41628;DHT22;27321;50.816;6.054;2024-02-23T04:46:07;7.50;67.10
41628;DHT22;27321;50.816;6.054;2024-02-23T04:49:08;7.50;67.00
41628;DHT22;27321;50.816;6.054;2024-02-23T04:52:12;7.50;67.10
41628;DHT22;27321;50.816;6.054;2024-02-23T04:55:13;7.60;66.80
41628;DHT22;27321;50.816;6.054;2024-02-23T04:58:14;7.50;66.20
41628;DHT22;27321;50.816;6.054;2024-02-23T05:01:15;7.40;66.70
41628;DHT22;27321;50.816;6.054;2024-02-23T05:04:16;7.40;66.80
41628;DHT22;27321;50.816;6.054;2024-02-23T05:07:17;7.40;66.70
41628;DHT22;27321;50.816;6.054;2024-02-23T05:10:18;7.50;67.10
41628;DHT22;27321;50.816;6.054;2024-02-23T05:13:19;7.50;66.90
41628;DHT22;27321;50.816;6.054;2024-02-23T05:16:20;7.50;66.90
41628;DHT22;27321;50.816;6.054;2024-02-23T05:19:21;7.50;66.60
41628;DHT22;27321;50.816;6.054;2024-02-23T05:22:22;7.60;66.70
41628;DHT22;27321;50.816;6.054;2024-02-23T05:25:23;7.60;66.80
41628;DHT22;27321;50.816;6.054;2024-02-23T05:28:23;7.70;66.60
41628;DHT22;27321;50.816;6.054;2024-02-23T05:31:48;7.70;66.50
41628;DHT22;27321;50.816;6.054;2024-02-23T05:34:50;7.60;66.50
41628;DHT22;27321;50.816;6.054;2024-02-23T05:37:53;7.60;66.90
41628;DHT22;27321;50.816;6.054;2024-02-23T05:40:54;7.50;67.10
41628;DHT22;27321;50.816;6.054;2024-02-23T05:43:55;7.50;67.40
41628;DHT22;27321;50.816;6.054;2024-02-23T05:46:56;7.40;67.00
41628;DHT22;27321;50.816;6.054;2024-02-23T05:49:57;7.50;67.70
41628;DHT22;27321;50.816;6.054;2024-02-23T05:52:58;7.50;67.70
41628;DHT22;27321;50.816;6.054;2024-02-23T05:55:59;7.50;67.60
41628;DHT22;27321;50.816;6.054;2024-02-23T05:59:00;7.50;67.70
41628;DHT22;27321;50.816;6.054;2024-02-23T06:02:03;7.50;67.70
41628;DHT22;27321;50.816;6.054;2024-02-23T06:05:05;7.50;67.60
41628;DHT22;27321;50.816;6.054;2024-02-23T06:08:08;7.30;67.40
41628;DHT22;27321;50.816;6.054;2024-02-23T06:11:10;7.30;67.50
41628;DHT22;27321;50.816;6.054;2024-02-23T06:14:10;7.30;67.20
41628;DHT22;27321;50.816;6.054;2024-02-23T06:17:12;7.30;67.50
41628;DHT22;27321;50.816;6.054;2024-02-23T06:20:13;7.30;67.00
41628;DHT22;27321;50.816;6.054;2024-02-23T06:23:13;7.20;67.10
41628;DHT22;27321;50.816;6.054;2024-02-23T06:26:14;7.10;67.40
41628;DHT22;27321;50.816;6.054;2024-02-23T06:29:16;7.00;67.10
41628;DHT22;27321;50.816;6.054;2024-02-23T06:32:23;7.00;67.50
41628;DHT22;27321;50.816;6.054;2024-02-23T06:35:25;7.00;67.30
41628;DHT22;27321;50.816;6.054;2024-02-23T06:38:29;7.00;67.20
41628;DHT22;27321;50.816;6.054;2024-02-23T06:41:30;6.90;67.10
41628;DHT22;27321;50.816;6.054;2024-02-23T06:44:32;6.90;67.50
41628;DHT22;27321;50.816;6.054;2024-02-23T06:47:36;6.90;67.30
41628;DHT22;27321;50.816;6.054;2024-02-23T06:50:37;6.80;67.90
41628;DHT22;27321;50.816;6.054;2024-02-23T06:53:38;6.80;67.90
41628;DHT22;27321;50.816;6.054;2024-02-23T06:56:39;6.80;68.10
41628;DHT22;27321;50.816;6.054;2024-02-23T06:59:42;6.80;68.10
41628;DHT22;27321;50.816;6.054;2024-02-23T07:02:43;6.80;68.00
41628;DHT22;27321;50.816;6.054;2024-02-23T07:05:44;6.80;68.30
41628;DHT22;27321;50.816;6.054;2024-02-23T07:08:46;6.80;68.00
41628;DHT22;27321;50.816;6.054;2024-02-23T07:11:47;6.80;68.00
41628;DHT22;27321;50.816;6.054;2024-02-23T07:14:49;6.80;68.00
41628;DHT22;27321;50.816;6.054;2024-02-23T07:17:50;6.80;68.80
41628;DHT22;27321;50.816;6.054;2024-02-23T07:20:51;6.80;68.60
41628;DHT22;27321;50.816;6.054;2024-02-23T07:23:52;6.90;68.20
41628;DHT22;27321;50.816;6.054;2024-02-23T07:26:53;6.90;68.50
41628;DHT22;27321;50.816;6.054;2024-02-23T07:29:54;7.00;68.40
41628;DHT22;27321;50.816;6.054;2024-02-23T07:32:55;7.00;68.40
41628;DHT22;27321;50.816;6.054;2024-02-23T07:35:56;7.00;68.70
41628;DHT22;27321;50.816;6.054;2024-02-23T07:38:57;7.00;68.50
41628;DHT22;27321;50.816;6.054;2024-02-23T07:41:58;7.10;68.50
41628;DHT22;27321;50.816;6.054;2024-02-23T07:44:59;7.00;68.30
41628;DHT22;27321;50.816;6.054;2024-02-23T07:48:03;7.10;68.70
41628;DHT22;27321;50.816;6.054;2024-02-23T07:51:05;7.00;68.50
41628;DHT22;27321;50.816;6.054;2024-02-23T07:54:06;7.10;68.60
41628;DHT22;27321;50.816;6.054;2024-02-23T07:57:07;7.10;68.50
41628;DHT22;27321;50.816;6.054;2024-02-23T08:00:08;7.10;68.60
41628;DHT22;27321;50.816;6.054;2024-02-23T08:03:14;7.20;68.40
41628;DHT22;27321;50.816;6.054;2024-02-23T08:06:15;7.20;68.90
41628;DHT22;27321;50.816;6.054;2024-02-23T08:09:19;7.20;68.50
41628;DHT22;27321;50.816;6.054;2024-02-23T08:12:26;7.30;68.50
41628;DHT22;27321;50.816;6.054;2024-02-23T08:15:27;7.30;68.20
41628;DHT22;27321;50.816;6.054;2024-02-23T08:18:28;7.30;68.20
41628;DHT22;27321;50.816;6.054;2024-02-23T08:21:29;7.30;68.30
41628;DHT22;27321;50.816;6.054;2024-02-23T08:24:31;7.30;68.00
41628;DHT22;27321;50.816;6.054;2024-02-23T08:27:32;7.30;68.00
41628;DHT22;27321;50.816;6.054;2024-02-23T08:30:36;7.30;68.10
41628;DHT22;27321;50.816;6.054;2024-02-23T08:33:40;7.40;68.40
41628;DHT22;27321;50.816;6.054;2024-02-23T08:36:41;7.50;68.00
41628;DHT22;27321;50.816;6.054;2024-02-23T08:39:45;7.60;67.30
41628;DHT22;27321;50.816;6.054;2024-02-23T08:42:49;7.70;67.00
41628;DHT22;27321;50.816;6.054;2024-02-23T08:45:50;7.70;66.80
41628;DHT22;27321;50.816;6.054;2024-02-23T08:48:52;7.70;66.20
41628;DHT22;27321;50.816;6.054;2024-02-23T08:52:03;7.60;66.50
41628;DHT22;27321;50.816;6.054;2024-02-23T08:55:04;7.60;66.90
41628;DHT22;27321;50.816;6.054;2024-02-23T08:58:05;7.80;66.80
41628;DHT22;27321;50.816;6.054;2024-02-23T09:01:06;7.70;66.30
41628;DHT22;27321;50.816;6.054;2024-02-23T09:04:09;7.70;66.40
41628;DHT22;27321;50.816;6.054;2024-02-23T09:07:11;7.70;66.40
41628;DHT22;27321;50.816;6.054;2024-02-23T09:10:12;7.70;66.60
41628;DHT22;27321;50.816;6.054;2024-02-23T09:13:13;7.70;66.20
41628;DHT22;27321;50.816;6.054;2024-02-23T09:16:16;7.80;66.60
41628;DHT22;27321;50.816;6.054;2024-02-23T09:19:23;7.80;66.50
41628;DHT22;27321;50.816;6.054;2024-02-23T09:22:24;7.90;66.70
41628;DHT22;27321;50.816;6.054;2024-02-23T09:25:25;8.10;66.30
41628;DHT22;27321;50.816;6.054;2024-02-23T09:28:26;8.00;65.70
41628;DHT22;27321;50.816;6.054;2024-02-23T09:31:27;8.10;65.60
41628;DHT22;27321;50.816;6.054;2024-02-23T09:34:32;8.20;65.80
41628;DHT22;27321;50.816;6.054;2024-02-23T09:37:33;8.20;65.00
41628;DHT22;27321;50.816;6.054;2024-02-23T09:40:34;8.20;65.30
41628;DHT22;27321;50.816;6.054;2024-02-23T09:43:35;8.30;65.20
41628;DHT22;27321;50.816;6.054;2024-02-23T09:46:37;8.30;65.30
41628;DHT22;27321;50.816;6.054;2024-02-23T09:49:40;8.50;65.50
41628;DHT22;27321;50.816;6.054;2024-02-23T09:52:41;8.60;65.00
41628;DHT22;27321;50.816;6.054;2024-02-23T09:55:43;8.70;64.90
41628;DHT22;27321;50.816;6.054;2024-02-23T09:58:55;8.80;64.40
41628;DHT22;27321;50.816;6.054;2024-02-23T10:03:05;8.80;64.10
41628;DHT22;27321;50.816;6.054;2024-02-23T10:06:06;8.80;64.50
41628;DHT22;27321;50.816;6.054;2024-02-23T10:09:07;8.80;64.80
41628;DHT22;27321;50.816;6.054;2024-02-23T10:12:09;8.80;64.20
41628;DHT22;27321;50.816;6.054;2024-02-23T10:15:10;8.80;64.10
41628;DHT22;27321;50.816;6.054;2024-02-23T10:18:11;8.70;64.00
41628;DHT22;27321;50.816;6.054;2024-02-23T10:21:12;8.80;64.30
41628;DHT22;27321;50.816;6.054;2024-02-23T10:24:17;8.80;64.40
41628;DHT22;27321;50.816;6.054;2024-02-23T10:27:18;8.80;64.50
41628;DHT22;27321;50.816;6.054;2024-02-23T10:30:20;8.80;65.10
41628;DHT22;27321;50.816;6.054;2024-02-23T10:33:23;8.90;64.70
41628;DHT22;27321;50.816;6.054;2024-02-23T10:36:29;9.00;64.10
41628;DHT22;27321;50.816;6.054;2024-02-23T10:39:37;9.10;64.40
41628;DHT22;27321;50.816;6.054;2024-02-23T10:42:39;9.10;64.50
41628;DHT22;27321;50.816;6.054;2024-02-23T10:45:43;9.30;63.90
41628;DHT22;27321;50.816;6.054;2024-02-23T10:48:44;9.40;64.30
41628;DHT22;27321;50.816;6.054;2024-02-23T10:51:46;9.50;63.50
41628;DHT22;27321;50.816;6.054;2024-02-23T10:54:49;9.50;63.80
41628;DHT22;27321;50.816;6.054;2024-02-23T10:57:53;9.50;62.90
41628;DHT22;27321;50.816;6.054;2024-02-23T11:01:01;9.40;63.50
41628;DHT22;27321;50.816;6.054;2024-02-23T11:04:06;9.50;63.80
41628;DHT22;27321;50.816;6.054;2024-02-23T11:07:13;9.50;63.10
41628;DHT22;27321;50.816;6.054;2024-02-23T11:10:16;9.50;63.00
41628;DHT22;27321;50.816;6.054;2024-02-23T11:13:17;9.40;62.70
41628;DHT22;27321;50.816;6.054;2024-02-23T11:16:22;9.30;62.80
41628;DHT22;27321;50.816;6.054;2024-02-23T11:19:36;9.30;63.20
41628;DHT22;27321;50.816;6.054;2024-02-23T11:22:38;9.30;63.40
41628;DHT22;27321;50.816;6.054;2024-02-23T11:25:39;9.30;62.90
41628;DHT22;27321;50.816;6.054;2024-02-23T11:28:50;9.30;62.50
41628;DHT22;27321;50.816;6.054;2024-02-23T11:31:58;9.30;63.10
41628;DHT22;27321;50.816;6.054;2024-02-23T11:35:03;9.30;63.20
41628;DHT22;27321;50.816;6.054;2024-02-23T11:38:05;9.30;63.40
41628;DHT22;27321;50.816;6.054;2024-02-23T11:41:07;9.40;63.20
41628;DHT22;27321;50.816;6.054;2024-02-23T11:44:09;9.30;63.30
41628;DHT22;27321;50.816;6.054;2024-02-23T11:47:10;9.20;63.30
41628;DHT22;27321;50.816;6.054;2024-02-23T11:50:11;9.30;63.40
41628;DHT22;27321;50.816;6.054;2024-02-23T11:53:16;9.20;63.90
41628;DHT22;27321;50.816;6.054;2024-02-23T11:56:22;9.30;63.30
41628;DHT22;27321;50.816;6.054;2024-02-23T11:59:25;9.30;64.00
41628;DHT22;27321;50.816;6.054;2024-02-23T12:02:35;9.40;63.90
41628;DHT22;27321;50.816;6.054;2024-02-23T12:05:36;9.60;63.10
41628;DHT22;27321;50.816;6.054;2024-02-23T12:08:40;9.60;63.50
41628;DHT22;27321;50.816;6.054;2024-02-23T12:11:42;9.70;62.30
41628;DHT22;27321;50.816;6.054;2024-02-23T12:14:43;9.70;61.80
41628;DHT22;27321;50.816;6.054;2024-02-23T12:17:48;9.70;62.50
41628;DHT22;27321;50.816;6.054;2024-02-23T12:20:53;9.80;62.70
41628;DHT22;27321;50.816;6.054;2024-02-23T12:23:54;10.00;62.70
41628;DHT22;27321;50.816;6.054;2024-02-23T12:26:56;10.10;62.20
41628;DHT22;27321;50.816;6.054;2024-02-23T12:30:00;10.10;61.40
41628;DHT22;27321;50.816;6.054;2024-02-23T12:33:05;10.00;61.70
41628;DHT22;27321;50.816;6.054;2024-02-23T12:36:08;10.10;62.20
41628;DHT22;27321;50.816;6.054;2024-02-23T12:39:09;10.30;62.90
41628;DHT22;27321;50.816;6.054;2024-02-23T12:42:17;10.30;61.80
41628;DHT22;27321;50.816;6.054;2024-02-23T12:45:18;10.40;62.70
41628;DHT22;27321;50.816;6.054;2024-02-23T12:48:20;10.50;62.80
41628;DHT22;27321;50.816;6.054;2024-02-23T12:51:25;10.50;61.50
41628;DHT22;27321;50.816;6.054;2024-02-23T12:54:32;10.50;62.00
41628;DHT22;27321;50.816;6.054;2024-02-23T12:57:36;10.50;61.40
41628;DHT22;27321;50.816;6.054;2024-02-23T13:00:41;10.40;61.80
41628;DHT22;27321;50.816;6.054;2024-02-23T13:03:42;10.40;61.10
41628;DHT22;27321;50.816;6.054;2024-02-23T13:06:43;10.40;61.20
41628;DHT22;27321;50.816;6.054;2024-02-23T13:09:47;10.30;60.20
41628;DHT22;27321;50.816;6.054;2024-02-23T13:12:55;10.30;60.90
41628;DHT22;27321;50.816;6.054;2024-02-23T13:15:55;10.30;61.50
41628;DHT22;27321;50.816;6.054;2024-02-23T13:18:57;10.30;61.40
41628;DHT22;27321;50.816;6.054;2024-02-23T13:21:58;10.30;61.40
41628;DHT22;27321;50.816;6.054;2024-02-23T13:25:03;10.30;62.00
41628;DHT22;27321;50.816;6.054;2024-02-23T13:28:05;10.30;60.80
41628;DHT22;27321;50.816;6.054;2024-02-23T13:31:12;10.50;61.40
41628;DHT22;27321;50.816;6.054;2024-02-23T13:34:14;10.40;60.70
41628;DHT22;27321;50.816;6.054;2024-02-23T13:37:17;10.40;61.20
41628;DHT22;27321;50.816;6.054;2024-02-23T13:40:19;10.30;60.20
41628;DHT22;27321;50.816;6.054;2024-02-23T13:43:20;10.30;61.50
41628;DHT22;27321;50.816;6.054;2024-02-23T13:46:21;10.30;61.20
41628;DHT22;27321;50.816;6.054;2024-02-23T13:49:22;10.40;62.20
41628;DHT22;27321;50.816;6.054;2024-02-23T13:52:24;10.50;61.80
41628;DHT22;27321;50.816;6.054;2024-02-23T13:55:25;10.60;62.00
41628;DHT22;27321;50.816;6.054;2024-02-23T13:58:27;10.60;61.70
41628;DHT22;27321;50.816;6.054;2024-02-23T14:04:44;10.70;61.30
41628;DHT22;27321;50.816;6.054;2024-02-23T14:07:46;10.70;61.80
41628;DHT22;27321;50.816;6.054;2024-02-23T14:10:47;10.70;61.80
41628;DHT22;27321;50.816;6.054;2024-02-23T14:13:53;10.80;61.80
41628;DHT22;27321;50.816;6.054;2024-02-23T14:16:55;10.80;61.50
41628;DHT22;27321;50.816;6.054;2024-02-23T14:19:56;10.90;61.50
41628;DHT22;27321;50.816;6.054;2024-02-23T14:22:57;10.90;60.50
41628;DHT22;27321;50.816;6.054;2024-02-23T14:25:58;10.80;60.20
41628;DHT22;27321;50.816;6.054;2024-02-23T14:28:59;10.60;60.30
41628;DHT22;27321;50.816;6.054;2024-02-23T14:32:00;10.60;61.20
41628;DHT22;27321;50.816;6.054;2024-02-23T14:35:06;10.60;61.10
41628;DHT22;27321;50.816;6.054;2024-02-23T14:38:08;10.50;60.70
41628;DHT22;27321;50.816;6.054;2024-02-23T14:41:09;10.50;60.60
41628;DHT22;27321;50.816;6.054;2024-02-23T14:44:13;10.50;61.70
41628;DHT22;27321;50.816;6.054;2024-02-23T14:47:14;10.50;61.50
41628;DHT22;27321;50.816;6.054;2024-02-23T14:50:18;10.50;61.50
41628;DHT22;27321;50.816;6.054;2024-02-23T14:53:19;10.30;61.30
41628;DHT22;27321;50.816;6.054;2024-02-23T14:56:31;10.30;61.30
41628;DHT22;27321;50.816;6.054;2024-02-23T14:59:33;10.20;61.50
41628;DHT22;27321;50.816;6.054;2024-02-23T15:02:36;10.20;61.60
41628;DHT22;27321;50.816;6.054;2024-02-23T15:05:37;10.20;61.80
41628;DHT22;27321;50.816;6.054;2024-02-23T15:08:38;10.20;61.90
41628;DHT22;27321;50.816;6.054;2024-02-23T15:11:39;10.20;62.00
41628;DHT22;27321;50.816;6.054;2024-02-23T15:14:40;10.20;62.30
41628;DHT22;27321;50.816;6.054;2024-02-23T15:17:42;10.20;62.10
41628;DHT22;27321;50.816;6.054;2024-02-23T15:20:43;10.20;62.30
41628;DHT22;27321;50.816;6.054;2024-02-23T15:23:47;10.30;62.60
41628;DHT22;27321;50.816;6.054;2024-02-23T15:26:48;10.30;62.40
41628;DHT22;27321;50.816;6.054;2024-02-23T15:29:52;10.30;62.60
41628;DHT22;27321;50.816;6.054;2024-02-23T15:32:53;10.30;62.20
41628;DHT22;27321;50.816;6.054;2024-02-23T15:35:54;10.40;62.70
41628;DHT22;27321;50.816;6.054;2024-02-23T15:38:56;10.60;62.50
41628;DHT22;27321;50.816;6.054;2024-02-23T15:42:06;10.60;62.20
41628;DHT22;27321;50.816;6.054;2024-02-23T15:45:08;10.60;62.40
41628;DHT22;27321;50.816;6.054;2024-02-23T15:48:10;10.60;61.90
41628;DHT22;27321;50.816;6.054;2024-02-23T15:51:13;10.50;62.20
41628;DHT22;27321;50.816;6.054;2024-02-23T15:54:14;10.50;61.60
41628;DHT22;27321;50.816;6.054;2024-02-23T15:57:15;10.50;61.80
41628;DHT22;27321;50.816;6.054;2024-02-23T16:00:17;10.60;62.00
41628;DHT22;27321;50.816;6.054;2024-02-23T16:03:21;10.60;61.90
41628;DHT22;27321;50.816;6.054;2024-02-23T16:06:23;10.60;61.60
41628;DHT22;27321;50.816;6.054;2024-02-23T16:09:25;10.60;61.70
41628;DHT22;27321;50.816;6.054;2024-02-23T16:12:30;10.60;61.70
41628;DHT22;27321;50.816;6.054;2024-02-23T16:15:31;10.50;61.90
41628;DHT22;27321;50.816;6.054;2024-02-23T16:18:33;10.50;62.20
41628;DHT22;27321;50.816;6.054;2024-02-23T16:21:35;10.50;61.60
41628;DHT22;27321;50.816;6.054;2024-02-23T16:24:38;10.40;61.60
41628;DHT22;27321;50.816;6.054;2024-02-23T16:27:39;10.40;61.30
41628;DHT22;27321;50.816;6.054;2024-02-23T16:30:42;10.30;61.70
41628;DHT22;27321;50.816;6.054;2024-02-23T16:33:43;10.30;61.50
41628;DHT22;27321;50.816;6.054;2024-02-23T16:36:44;10.30;61.70
41628;DHT22;27321;50.816;6.054;2024-02-23T16:39:46;10.30;61.30
41628;DHT22;27321;50.816;6.054;2024-02-23T16:42:50;10.30;60.90
41628;DHT22;27321;50.816;6.054;2024-02-23T16:45:56;10.30;61.00
41628;DHT22;27321;50.816;6.054;2024-02-23T16:48:57;10.30;61.10
41628;DHT22;27321;50.816;6.054;2024-02-23T16:52:02;10.30;61.30
41628;DHT22;27321;50.816;6.054;2024-02-23T16:55:06;10.30;61.10
41628;DHT22;27321;50.816;6.054;2024-02-23T16:58:08;10.20;61.20
41628;DHT22;27321;50.816;6.054;2024-02-23T17:01:13;10.20;61.60
41628;DHT22;27321;50.816;6.054;2024-02-23T17:04:14;10.20;61.30
41628;DHT22;27321;50.816;6.054;2024-02-23T17:07:20;10.20;61.70
41628;DHT22;27321;50.816;6.054;2024-02-23T17:10:36;10.10;61.20
41628;DHT22;27321;50.816;6.054;2024-02-23T17:13:39;10.00;61.90
41628;DHT22;27321;50.816;6.054;2024-02-23T17:16:44;10.10;62.20
41628;DHT22;27321;50.816;6.054;2024-02-23T17:19:46;10.00;62.20
41628;DHT22;27321;50.816;6.054;2024-02-23T17:22:53;10.00;62.40
41628;DHT22;27321;50.816;6.054;2024-02-23T17:26:03;10.00;62.20
41628;DHT22;27321;50.816;6.054;2024-02-23T17:29:05;10.00;62.30
41628;DHT22;27321;50.816;6.054;2024-02-23T17:32:08;10.00;62.60
41628;DHT22;27321;50.816;6.054;2024-02-23T17:35:11;10.00;62.40
41628;DHT22;27321;50.816;6.054;2024-02-23T17:38:18;10.00;62.60
41628;DHT22;27321;50.816;6.054;2024-02-23T17:41:25;10.00;62.70
41628;DHT22;27321;50.816;6.054;2024-02-23T17:44:29;10.00;62.70
41628;DHT22;27321;50.816;6.054;2024-02-23T17:47:33;10.00;62.80
41628;DHT22;27321;50.816;6.054;2024-02-23T17:50:41;9.90;63.20
41628;DHT22;27321;50.816;6.054;2024-02-23T17:53:44;9.80;63.10
41628;DHT22;27321;50.816;6.054;2024-02-23T17:56:48;9.80;63.40
41628;DHT22;27321;50.816;6.054;2024-02-23T17:59:50;9.80;63.60
41628;DHT22;27321;50.816;6.054;2024-02-23T18:02:51;9.80;63.70
41628;DHT22;27321;50.816;6.054;2024-02-23T18:05:52;9.70;63.80
41628;DHT22;27321;50.816;6.054;2024-02-23T18:08:53;9.60;64.10
41628;DHT22;27321;50.816;6.054;2024-02-23T18:11:54;9.50;64.30
41628;DHT22;27321;50.816;6.054;2024-02-23T18:14:55;9.50;64.50
41628;DHT22;27321;50.816;6.054;2024-02-23T18:17:56;9.50;64.70
41628;DHT22;27321;50.816;6.054;2024-02-23T18:20:57;9.40;64.60
41628;DHT22;27321;50.816;6.054;2024-02-23T18:23:58;9.40;65.00
41628;DHT22;27321;50.816;6.054;2024-02-23T18:27:05;9.30;64.90
41628;DHT22;27321;50.816;6.054;2024-02-23T18:30:07;9.30;65.10
41628;DHT22;27321;50.816;6.054;2024-02-23T18:33:08;9.30;65.00
41628;DHT22;27321;50.816;6.054;2024-02-23T18:36:09;9.20;65.30
41628;DHT22;27321;50.816;6.054;2024-02-23T18:39:19;9.20;65.40
41628;DHT22;27321;50.816;6.054;2024-02-23T18:42:29;9.20;65.50
41628;DHT22;27321;50.816;6.054;2024-02-23T18:45:33;9.10;65.20
41628;DHT22;27321;50.816;6.054;2024-02-23T18:48:35;9.10;65.30
41628;DHT22;27321;50.816;6.054;2024-02-23T18:51:36;9.00;65.40
41628;DHT22;27321;50.816;6.054;2024-02-23T18:54:43;9.00;65.60
41628;DHT22;27321;50.816;6.054;2024-02-23T18:57:44;8.90;65.60
41628;DHT22;27321;50.816;6.054;2024-02-23T19:00:45;8.90;65.50
41628;DHT22;27321;50.816;6.054;2024-02-23T19:03:49;8.90;65.20
41628;DHT22;27321;50.816;6.054;2024-02-23T19:06:50;8.90;65.30
41628;DHT22;27321;50.816;6.054;2024-02-23T19:09:54;8.80;65.30
41628;DHT22;27321;50.816;6.054;2024-02-23T19:12:56;8.80;65.50
41628;DHT22;27321;50.816;6.054;2024-02-23T19:16:00;8.80;65.30
41628;DHT22;27321;50.816;6.054;2024-02-23T19:19:06;8.80;65.20
41628;DHT22;27321;50.816;6.054;2024-02-23T19:22:08;8.80;65.50
41628;DHT22;27321;50.816;6.054;2024-02-23T19:25:13;8.70;65.40
41628;DHT22;27321;50.816;6.054;2024-02-23T19:28:15;8.70;65.50
41628;DHT22;27321;50.816;6.054;2024-02-23T19:31:25;8.70;65.40